Peralta, NM (87042)

8:17 AM MDT on May 22, 2015 (GMT -0600)
Valencia Y | | Change Station
CLOSE
Current Station
Personal Weather Station
Location: Los Lunas, NM
Elevation: 4852 ft
Nearby Weather Stations

Elev 4852 ft 34.81 °N, 106.70 °W | Updated 9 seconds ago

Overcast
Overcast
56.1 °F
Feels Like 56.1 °F
N
0.0
Wind Variable Wind from WNW
Gusts 2.0 mph

Today
High -- | Low -- °F
--% Chance of Precip.
Yesterday
High -- | Low -- °F
Precip. -- in
5:58 AM 8:08 PM
Waxing Crescent, 21% visible
Pressure 30.01 in
Visibility 10.0 miles
Clouds Scattered Clouds 3500 ft
Mostly Cloudy 18000 ft
Dew Point 48 °F
Humidity 69%
Rainfall 0.00 in
Snow Depth Not available.
UV 1 out of 12
Pollen 3.90 out of 12
Air Quality Not available.
Flu Activity Local Activity
METAR KABQ 221352Z 00000KT 10SM SCT035 BKN180 12/07 A3012 RMK AO2 SLP162 MTNS OBSC NE T01170067

More Conditions Fewer Conditions

Pressure 30.01 in
Visibility 10.0 miles
Clouds Scattered Clouds 3500 ft
Mostly Cloudy 18000 ft
Dew Point 48 °F
Humidity 69%
Rainfall 0.00 in
Snow Depth Not available.
UV 1 out of 12
Pollen 3.90 out of 12
Air Quality Not available.
Flu Activity Local Activity
METAR KABQ 221352Z 00000KT 10SM SCT035 BKN180 12/07 A3012 RMK AO2 SLP162 MTNS OBSC NE T01170067

More Conditions Fewer Conditions

10-Day Weather Forecast

Almanac

Astronomy

May. 22, 2015 Rise Set
Actual Time
Civil Twilight
Nautical Twilight
Astronomical Twilight
Moon
Length of Visible Light
Length of Day
Tomorrow will be .
, % of the Moon is Illuminated

Today's Extremes

State Highs State Lows

Community

WunderPhotos

Upload Photos

1,823,225 photos uploaded!

WunderBlogs® & News

Nearby

Air Quality

  Air Quality AQ Index Pollutant
Not available.

Snow Depth

Station Depth Elevation

Earthquake Activity

City Distance Mag. Time & Date
Minimum magnitude displayed is 2.5.

Coastal Water Temperatures

Place Temperature

Stations

Nearby Weather Stations

Station Location Temp. Windchill Dew Point Humidity Wind Precip. Elev Updated Type